sensor_id;sensor_type;location;lat;lon;timestamp;P1;durP1;ratioP1;P2;durP2;ratioP2
72557;SDS011;60583;50.094;8.748;2023-05-15T00:02:04;7.63;;;4.63;;
72557;SDS011;60583;50.094;8.748;2023-05-15T00:04:30;7.93;;;4.60;;
72557;SDS011;60583;50.094;8.748;2023-05-15T00:06:56;8.48;;;4.63;;
72557;SDS011;60583;50.094;8.748;2023-05-15T00:09:22;9.60;;;4.88;;
72557;SDS011;60583;50.094;8.748;2023-05-15T00:11:47;9.15;;;4.75;;
72557;SDS011;60583;50.094;8.748;2023-05-15T00:14:12;7.95;;;4.75;;
72557;SDS011;60583;50.094;8.748;2023-05-15T00:16:38;9.50;;;5.22;;
72557;SDS011;60583;50.094;8.748;2023-05-15T00:19:03;7.80;;;4.68;;
72557;SDS011;60583;50.094;8.748;2023-05-15T00:21:28;9.90;;;4.72;;
72557;SDS011;60583;50.094;8.748;2023-05-15T00:23:55;9.38;;;4.85;;
72557;SDS011;60583;50.094;8.748;2023-05-15T00:26:22;9.40;;;4.65;;
72557;SDS011;60583;50.094;8.748;2023-05-15T00:28:48;7.35;;;4.28;;
72557;SDS011;60583;50.094;8.748;2023-05-15T00:31:13;7.70;;;4.55;;
72557;SDS011;60583;50.094;8.748;2023-05-15T00:33:39;8.70;;;4.68;;
72557;SDS011;60583;50.094;8.748;2023-05-15T00:36:04;7.55;;;4.25;;
72557;SDS011;60583;50.094;8.748;2023-05-15T00:38:30;8.18;;;4.63;;
72557;SDS011;60583;50.094;8.748;2023-05-15T00:40:58;6.90;;;4.57;;
72557;SDS011;60583;50.094;8.748;2023-05-15T00:43:24;8.77;;;4.78;;
72557;SDS011;60583;50.094;8.748;2023-05-15T00:45:50;8.68;;;4.78;;
72557;SDS011;60583;50.094;8.748;2023-05-15T00:48:16;9.15;;;4.60;;
72557;SDS011;60583;50.094;8.748;2023-05-15T00:50:43;7.65;;;4.72;;
72557;SDS011;60583;50.094;8.748;2023-05-15T00:53:09;7.60;;;4.45;;
72557;SDS011;60583;50.094;8.748;2023-05-15T00:55:35;6.28;;;4.18;;
72557;SDS011;60583;50.094;8.748;2023-05-15T00:58:02;9.18;;;4.13;;
72557;SDS011;60583;50.094;8.748;2023-05-15T01:00:27;7.97;;;3.97;;
72557;SDS011;60583;50.094;8.748;2023-05-15T01:02:55;5.40;;;3.75;;
72557;SDS011;60583;50.094;8.748;2023-05-15T01:05:20;7.90;;;4.22;;
72557;SDS011;60583;50.094;8.748;2023-05-15T01:07:56;7.45;;;4.38;;
72557;SDS011;60583;50.094;8.748;2023-05-15T01:10:29;6.47;;;4.10;;
72557;SDS011;60583;50.094;8.748;2023-05-15T01:12:56;6.40;;;4.18;;
72557;SDS011;60583;50.094;8.748;2023-05-15T01:15:24;7.13;;;4.07;;
72557;SDS011;60583;50.094;8.748;2023-05-15T01:17:50;6.80;;;4.05;;
72557;SDS011;60583;50.094;8.748;2023-05-15T01:20:16;6.43;;;3.85;;
72557;SDS011;60583;50.094;8.748;2023-05-15T01:22:50;7.35;;;4.18;;
72557;SDS011;60583;50.094;8.748;2023-05-15T01:25:31;6.85;;;4.30;;
72557;SDS011;60583;50.094;8.748;2023-05-15T01:28:08;6.63;;;4.30;;
72557;SDS011;60583;50.094;8.748;2023-05-15T01:30:39;7.80;;;4.05;;
72557;SDS011;60583;50.094;8.748;2023-05-15T01:33:21;6.70;;;3.97;;
72557;SDS011;60583;50.094;8.748;2023-05-15T01:35:59;6.97;;;4.35;;
72557;SDS011;60583;50.094;8.748;2023-05-15T01:38:45;6.38;;;4.07;;
72557;SDS011;60583;50.094;8.748;2023-05-15T01:43:56;6.32;;;3.72;;
72557;SDS011;60583;50.094;8.748;2023-05-15T01:46:26;6.45;;;4.20;;
72557;SDS011;60583;50.094;8.748;2023-05-15T01:48:55;6.05;;;4.18;;
72557;SDS011;60583;50.094;8.748;2023-05-15T01:51:22;6.70;;;3.95;;
72557;SDS011;60583;50.094;8.748;2023-05-15T01:53:50;6.85;;;3.63;;
72557;SDS011;60583;50.094;8.748;2023-05-15T01:56:17;6.47;;;4.03;;
72557;SDS011;60583;50.094;8.748;2023-05-15T01:58:44;5.72;;;4.07;;
72557;SDS011;60583;50.094;8.748;2023-05-15T02:01:12;6.07;;;4.03;;
72557;SDS011;60583;50.094;8.748;2023-05-15T02:03:38;6.18;;;4.13;;
72557;SDS011;60583;50.094;8.748;2023-05-15T02:06:05;6.07;;;4.00;;
72557;SDS011;60583;50.094;8.748;2023-05-15T02:08:31;5.25;;;3.72;;
72557;SDS011;60583;50.094;8.748;2023-05-15T02:10:57;6.95;;;4.07;;
72557;SDS011;60583;50.094;8.748;2023-05-15T02:13:27;7.18;;;4.13;;
72557;SDS011;60583;50.094;8.748;2023-05-15T02:15:53;6.25;;;4.10;;
72557;SDS011;60583;50.094;8.748;2023-05-15T02:18:18;6.40;;;4.07;;
72557;SDS011;60583;50.094;8.748;2023-05-15T02:20:44;6.75;;;4.57;;
72557;SDS011;60583;50.094;8.748;2023-05-15T02:23:09;6.78;;;4.20;;
72557;SDS011;60583;50.094;8.748;2023-05-15T02:31:40;5.93;;;4.47;;
72557;SDS011;60583;50.094;8.748;2023-05-15T02:34:17;6.38;;;4.18;;
72557;SDS011;60583;50.094;8.748;2023-05-15T02:36:50;7.15;;;4.57;;
72557;SDS011;60583;50.094;8.748;2023-05-15T02:39:18;6.28;;;4.07;;
72557;SDS011;60583;50.094;8.748;2023-05-15T02:41:47;6.53;;;4.55;;
72557;SDS011;60583;50.094;8.748;2023-05-15T02:44:14;6.28;;;4.18;;
72557;SDS011;60583;50.094;8.748;2023-05-15T02:46:42;7.28;;;4.22;;
72557;SDS011;60583;50.094;8.748;2023-05-15T02:49:08;6.32;;;4.22;;
72557;SDS011;60583;50.094;8.748;2023-05-15T02:51:35;7.40;;;4.70;;
72557;SDS011;60583;50.094;8.748;2023-05-15T02:54:01;6.47;;;4.07;;
72557;SDS011;60583;50.094;8.748;2023-05-15T02:56:26;7.50;;;4.32;;
72557;SDS011;60583;50.094;8.748;2023-05-15T02:58:52;7.82;;;4.82;;
72557;SDS011;60583;50.094;8.748;2023-05-15T03:01:17;6.95;;;4.35;;
72557;SDS011;60583;50.094;8.748;2023-05-15T03:03:43;6.80;;;4.63;;
72557;SDS011;60583;50.094;8.748;2023-05-15T03:06:08;7.13;;;4.22;;
72557;SDS011;60583;50.094;8.748;2023-05-15T03:08:33;8.02;;;4.18;;
72557;SDS011;60583;50.094;8.748;2023-05-15T03:10:59;7.55;;;4.80;;
72557;SDS011;60583;50.094;8.748;2023-05-15T03:13:24;6.53;;;4.85;;
72557;SDS011;60583;50.094;8.748;2023-05-15T03:15:50;7.03;;;4.78;;
72557;SDS011;60583;50.094;8.748;2023-05-15T03:18:17;7.72;;;5.32;;
72557;SDS011;60583;50.094;8.748;2023-05-15T03:20:42;8.07;;;5.15;;
72557;SDS011;60583;50.094;8.748;2023-05-15T03:23:08;6.57;;;4.60;;
72557;SDS011;60583;50.094;8.748;2023-05-15T03:25:33;7.00;;;4.38;;
72557;SDS011;60583;50.094;8.748;2023-05-15T03:27:59;7.20;;;4.53;;
72557;SDS011;60583;50.094;8.748;2023-05-15T03:30:24;7.07;;;4.70;;
72557;SDS011;60583;50.094;8.748;2023-05-15T03:32:49;7.80;;;4.63;;
72557;SDS011;60583;50.094;8.748;2023-05-15T03:35:15;7.82;;;4.72;;
72557;SDS011;60583;50.094;8.748;2023-05-15T03:37:40;6.85;;;4.72;;
72557;SDS011;60583;50.094;8.748;2023-05-15T03:40:06;6.43;;;4.32;;
72557;SDS011;60583;50.094;8.748;2023-05-15T03:42:32;6.28;;;4.70;;
72557;SDS011;60583;50.094;8.748;2023-05-15T03:44:58;7.55;;;5.10;;
72557;SDS011;60583;50.094;8.748;2023-05-15T03:47:23;8.13;;;5.10;;
72557;SDS011;60583;50.094;8.748;2023-05-15T03:49:49;7.40;;;4.53;;
72557;SDS011;60583;50.094;8.748;2023-05-15T03:52:14;6.22;;;4.15;;
72557;SDS011;60583;50.094;8.748;2023-05-15T03:54:40;7.32;;;4.88;;
72557;SDS011;60583;50.094;8.748;2023-05-15T03:57:06;8.15;;;4.50;;
72557;SDS011;60583;50.094;8.748;2023-05-15T03:59:32;7.25;;;4.30;;
72557;SDS011;60583;50.094;8.748;2023-05-15T04:01:57;8.10;;;4.50;;
72557;SDS011;60583;50.094;8.748;2023-05-15T04:04:23;7.32;;;4.50;;
72557;SDS011;60583;50.094;8.748;2023-05-15T04:06:49;8.20;;;4.65;;
72557;SDS011;60583;50.094;8.748;2023-05-15T04:09:14;7.63;;;4.55;;
72557;SDS011;60583;50.094;8.748;2023-05-15T04:11:40;7.85;;;4.75;;
72557;SDS011;60583;50.094;8.748;2023-05-15T04:14:05;7.68;;;5.22;;
72557;SDS011;60583;50.094;8.748;2023-05-15T04:16:30;7.57;;;4.82;;
72557;SDS011;60583;50.094;8.748;2023-05-15T04:18:56;7.65;;;4.55;;
72557;SDS011;60583;50.094;8.748;2023-05-15T04:21:21;6.68;;;4.57;;
72557;SDS011;60583;50.094;8.748;2023-05-15T04:23:46;6.85;;;4.40;;
72557;SDS011;60583;50.094;8.748;2023-05-15T04:26:12;7.72;;;4.68;;
72557;SDS011;60583;50.094;8.748;2023-05-15T04:28:37;9.65;;;5.45;;
72557;SDS011;60583;50.094;8.748;2023-05-15T04:31:03;6.85;;;4.90;;
72557;SDS011;60583;50.094;8.748;2023-05-15T04:33:28;7.50;;;4.63;;
72557;SDS011;60583;50.094;8.748;2023-05-15T04:35:53;6.70;;;4.43;;
72557;SDS011;60583;50.094;8.748;2023-05-15T04:38:19;9.45;;;4.68;;
72557;SDS011;60583;50.094;8.748;2023-05-15T04:40:44;7.63;;;5.05;;
72557;SDS011;60583;50.094;8.748;2023-05-15T04:43:10;7.53;;;4.82;;
72557;SDS011;60583;50.094;8.748;2023-05-15T04:45:35;9.38;;;5.20;;
72557;SDS011;60583;50.094;8.748;2023-05-15T04:48:01;9.43;;;5.95;;
72557;SDS011;60583;50.094;8.748;2023-05-15T04:50:26;8.95;;;5.53;;
72557;SDS011;60583;50.094;8.748;2023-05-15T04:52:52;9.00;;;5.50;;
72557;SDS011;60583;50.094;8.748;2023-05-15T04:55:18;8.48;;;5.90;;
72557;SDS011;60583;50.094;8.748;2023-05-15T04:57:44;8.68;;;5.07;;
72557;SDS011;60583;50.094;8.748;2023-05-15T05:00:10;9.48;;;5.18;;
72557;SDS011;60583;50.094;8.748;2023-05-15T05:02:40;11.13;;;5.68;;
72557;SDS011;60583;50.094;8.748;2023-05-15T05:05:07;8.85;;;6.00;;
72557;SDS011;60583;50.094;8.748;2023-05-15T05:07:33;8.68;;;5.78;;
72557;SDS011;60583;50.094;8.748;2023-05-15T05:09:59;8.40;;;4.85;;
72557;SDS011;60583;50.094;8.748;2023-05-15T05:12:26;11.30;;;5.93;;
72557;SDS011;60583;50.094;8.748;2023-05-15T05:14:51;11.07;;;6.30;;
72557;SDS011;60583;50.094;8.748;2023-05-15T05:17:16;8.43;;;5.78;;
72557;SDS011;60583;50.094;8.748;2023-05-15T05:19:44;9.30;;;5.78;;
72557;SDS011;60583;50.094;8.748;2023-05-15T05:22:09;8.57;;;5.70;;
72557;SDS011;60583;50.094;8.748;2023-05-15T05:24:35;9.25;;;5.75;;
72557;SDS011;60583;50.094;8.748;2023-05-15T05:27:01;9.18;;;5.75;;
72557;SDS011;60583;50.094;8.748;2023-05-15T05:29:28;9.05;;;5.95;;
72557;SDS011;60583;50.094;8.748;2023-05-15T05:31:54;10.43;;;6.00;;
72557;SDS011;60583;50.094;8.748;2023-05-15T05:34:20;9.85;;;6.13;;
72557;SDS011;60583;50.094;8.748;2023-05-15T05:36:46;9.13;;;6.13;;
72557;SDS011;60583;50.094;8.748;2023-05-15T05:39:11;9.55;;;6.40;;
72557;SDS011;60583;50.094;8.748;2023-05-15T05:41:36;8.73;;;5.80;;
72557;SDS011;60583;50.094;8.748;2023-05-15T05:44:03;9.48;;;6.13;;
72557;SDS011;60583;50.094;8.748;2023-05-15T05:46:28;8.70;;;5.70;;
72557;SDS011;60583;50.094;8.748;2023-05-15T05:48:54;9.10;;;6.10;;
72557;SDS011;60583;50.094;8.748;2023-05-15T05:51:20;9.15;;;5.82;;
72557;SDS011;60583;50.094;8.748;2023-05-15T05:53:45;8.73;;;6.13;;
72557;SDS011;60583;50.094;8.748;2023-05-15T05:56:11;8.10;;;5.80;;
72557;SDS011;60583;50.094;8.748;2023-05-15T05:58:36;8.13;;;5.70;;
72557;SDS011;60583;50.094;8.748;2023-05-15T06:01:02;9.30;;;5.93;;
72557;SDS011;60583;50.094;8.748;2023-05-15T06:03:27;8.38;;;5.32;;
72557;SDS011;60583;50.094;8.748;2023-05-15T06:05:53;9.25;;;5.35;;
72557;SDS011;60583;50.094;8.748;2023-05-15T06:08:19;8.52;;;6.05;;
72557;SDS011;60583;50.094;8.748;2023-05-15T06:10:44;9.48;;;6.60;;
72557;SDS011;60583;50.094;8.748;2023-05-15T06:13:10;8.95;;;6.20;;
72557;SDS011;60583;50.094;8.748;2023-05-15T06:15:36;8.77;;;5.90;;
72557;SDS011;60583;50.094;8.748;2023-05-15T06:18:01;8.05;;;6.07;;
72557;SDS011;60583;50.094;8.748;2023-05-15T06:20:27;8.48;;;5.47;;
72557;SDS011;60583;50.094;8.748;2023-05-15T06:22:52;8.13;;;5.47;;
72557;SDS011;60583;50.094;8.748;2023-05-15T06:25:18;7.47;;;5.00;;
72557;SDS011;60583;50.094;8.748;2023-05-15T06:27:43;8.30;;;6.05;;
72557;SDS011;60583;50.094;8.748;2023-05-15T06:30:09;8.32;;;5.65;;
72557;SDS011;60583;50.094;8.748;2023-05-15T06:32:35;9.00;;;5.57;;
72557;SDS011;60583;50.094;8.748;2023-05-15T06:35:00;8.00;;;5.25;;
72557;SDS011;60583;50.094;8.748;2023-05-15T06:37:26;7.07;;;4.85;;
72557;SDS011;60583;50.094;8.748;2023-05-15T06:39:53;7.32;;;5.20;;
72557;SDS011;60583;50.094;8.748;2023-05-15T06:42:18;6.97;;;4.90;;
72557;SDS011;60583;50.094;8.748;2023-05-15T06:44:44;7.38;;;4.93;;
72557;SDS011;60583;50.094;8.748;2023-05-15T06:47:11;7.93;;;5.40;;
72557;SDS011;60583;50.094;8.748;2023-05-15T06:49:36;7.75;;;4.80;;
72557;SDS011;60583;50.094;8.748;2023-05-15T06:52:02;8.75;;;4.65;;
72557;SDS011;60583;50.094;8.748;2023-05-15T06:54:30;6.03;;;4.72;;
72557;SDS011;60583;50.094;8.748;2023-05-15T06:56:55;7.65;;;4.85;;
72557;SDS011;60583;50.094;8.748;2023-05-15T06:59:20;6.32;;;4.40;;
72557;SDS011;60583;50.094;8.748;2023-05-15T07:01:46;6.55;;;4.28;;
72557;SDS011;60583;50.094;8.748;2023-05-15T07:04:11;6.20;;;4.50;;
72557;SDS011;60583;50.094;8.748;2023-05-15T07:06:37;7.55;;;5.00;;
72557;SDS011;60583;50.094;8.748;2023-05-15T07:09:02;6.45;;;4.80;;
72557;SDS011;60583;50.094;8.748;2023-05-15T07:11:28;7.75;;;5.15;;
72557;SDS011;60583;50.094;8.748;2023-05-15T07:13:54;6.57;;;4.78;;
72557;SDS011;60583;50.094;8.748;2023-05-15T07:16:20;6.35;;;4.60;;
72557;SDS011;60583;50.094;8.748;2023-05-15T07:18:45;6.32;;;5.07;;
72557;SDS011;60583;50.094;8.748;2023-05-15T07:21:11;6.57;;;4.63;;
72557;SDS011;60583;50.094;8.748;2023-05-15T07:23:36;8.10;;;5.20;;
72557;SDS011;60583;50.094;8.748;2023-05-15T07:26:02;6.72;;;4.55;;
72557;SDS011;60583;50.094;8.748;2023-05-15T07:28:27;7.93;;;4.78;;
72557;SDS011;60583;50.094;8.748;2023-05-15T07:30:53;9.02;;;5.53;;
72557;SDS011;60583;50.094;8.748;2023-05-15T07:33:18;7.68;;;4.85;;
72557;SDS011;60583;50.094;8.748;2023-05-15T07:35:43;8.80;;;5.20;;
72557;SDS011;60583;50.094;8.748;2023-05-15T07:38:09;6.90;;;4.60;;
72557;SDS011;60583;50.094;8.748;2023-05-15T07:40:35;7.65;;;4.80;;
72557;SDS011;60583;50.094;8.748;2023-05-15T07:43:00;6.65;;;4.80;;
72557;SDS011;60583;50.094;8.748;2023-05-15T07:45:26;8.18;;;5.15;;
72557;SDS011;60583;50.094;8.748;2023-05-15T07:47:51;9.05;;;4.85;;
72557;SDS011;60583;50.094;8.748;2023-05-15T07:50:17;7.93;;;4.97;;
72557;SDS011;60583;50.094;8.748;2023-05-15T07:52:42;8.35;;;4.88;;
72557;SDS011;60583;50.094;8.748;2023-05-15T07:55:08;7.68;;;4.40;;
72557;SDS011;60583;50.094;8.748;2023-05-15T07:57:34;7.65;;;4.50;;
72557;SDS011;60583;50.094;8.748;2023-05-15T08:00:00;7.38;;;5.15;;
72557;SDS011;60583;50.094;8.748;2023-05-15T08:02:31;10.55;;;5.70;;
72557;SDS011;60583;50.094;8.748;2023-05-15T08:04:57;6.35;;;4.80;;
72557;SDS011;60583;50.094;8.748;2023-05-15T08:07:23;6.97;;;4.80;;
72557;SDS011;60583;50.094;8.748;2023-05-15T08:09:48;6.78;;;5.22;;
72557;SDS011;60583;50.094;8.748;2023-05-15T08:12:16;8.10;;;5.47;;
72557;SDS011;60583;50.094;8.748;2023-05-15T08:14:45;8.23;;;4.88;;
72557;SDS011;60583;50.094;8.748;2023-05-15T08:17:20;9.98;;;4.60;;
72557;SDS011;60583;50.094;8.748;2023-05-15T08:19:46;7.53;;;4.55;;
72557;SDS011;60583;50.094;8.748;2023-05-15T08:22:14;7.82;;;5.18;;
72557;SDS011;60583;50.094;8.748;2023-05-15T08:24:39;6.68;;;4.72;;
72557;SDS011;60583;50.094;8.748;2023-05-15T08:27:14;6.28;;;4.57;;
72557;SDS011;60583;50.094;8.748;2023-05-15T08:29:39;7.78;;;4.78;;
72557;SDS011;60583;50.094;8.748;2023-05-15T08:32:05;5.90;;;3.95;;
72557;SDS011;60583;50.094;8.748;2023-05-15T08:34:31;6.40;;;4.10;;
72557;SDS011;60583;50.094;8.748;2023-05-15T08:36:57;10.80;;;6.80;;
72557;SDS011;60583;50.094;8.748;2023-05-15T08:39:23;7.75;;;4.80;;
72557;SDS011;60583;50.094;8.748;2023-05-15T08:42:05;6.72;;;4.70;;
72557;SDS011;60583;50.094;8.748;2023-05-15T08:44:34;5.93;;;4.50;;
72557;SDS011;60583;50.094;8.748;2023-05-15T08:47:01;6.32;;;3.83;;
72557;SDS011;60583;50.094;8.748;2023-05-15T08:52:28;5.85;;;3.88;;
72557;SDS011;60583;50.094;8.748;2023-05-15T08:54:54;4.97;;;3.90;;
72557;SDS011;60583;50.094;8.748;2023-05-15T08:57:20;5.50;;;3.55;;
72557;SDS011;60583;50.094;8.748;2023-05-15T08:59:46;4.88;;;3.88;;
72557;SDS011;60583;50.094;8.748;2023-05-15T09:02:13;6.60;;;4.43;;
72557;SDS011;60583;50.094;8.748;2023-05-15T09:04:40;6.18;;;4.03;;
72557;SDS011;60583;50.094;8.748;2023-05-15T09:07:05;7.47;;;4.43;;
72557;SDS011;60583;50.094;8.748;2023-05-15T09:09:31;5.80;;;4.28;;
72557;SDS011;60583;50.094;8.748;2023-05-15T09:11:58;6.38;;;4.22;;
72557;SDS011;60583;50.094;8.748;2023-05-15T09:14:25;7.10;;;4.50;;
72557;SDS011;60583;50.094;8.748;2023-05-15T09:16:50;5.82;;;4.70;;
72557;SDS011;60583;50.094;8.748;2023-05-15T09:19:18;7.75;;;4.45;;
72557;SDS011;60583;50.094;8.748;2023-05-15T09:21:44;8.65;;;4.43;;
72557;SDS011;60583;50.094;8.748;2023-05-15T09:24:19;6.28;;;4.18;;
72557;SDS011;60583;50.094;8.748;2023-05-15T09:26:59;6.78;;;4.10;;
72557;SDS011;60583;50.094;8.748;2023-05-15T09:29:27;5.75;;;4.15;;
72557;SDS011;60583;50.094;8.748;2023-05-15T09:31:54;5.82;;;4.30;;
72557;SDS011;60583;50.094;8.748;2023-05-15T09:34:29;6.03;;;4.45;;
72557;SDS011;60583;50.094;8.748;2023-05-15T09:36:56;5.65;;;4.18;;
72557;SDS011;60583;50.094;8.748;2023-05-15T09:39:21;7.90;;;4.47;;
72557;SDS011;60583;50.094;8.748;2023-05-15T09:41:47;6.93;;;4.32;;
72557;SDS011;60583;50.094;8.748;2023-05-15T09:44:25;5.47;;;4.50;;
72557;SDS011;60583;50.094;8.748;2023-05-15T09:46:51;6.13;;;4.53;;
72557;SDS011;60583;50.094;8.748;2023-05-15T09:49:17;6.47;;;4.25;;
72557;SDS011;60583;50.094;8.748;2023-05-15T09:51:44;5.50;;;4.30;;
72557;SDS011;60583;50.094;8.748;2023-05-15T09:54:17;6.18;;;4.65;;
72557;SDS011;60583;50.094;8.748;2023-05-15T09:56:43;6.70;;;4.43;;
72557;SDS011;60583;50.094;8.748;2023-05-15T09:59:13;5.50;;;4.50;;
72557;SDS011;60583;50.094;8.748;2023-05-15T10:01:47;6.88;;;4.22;;
72557;SDS011;60583;50.094;8.748;2023-05-15T10:04:13;5.95;;;4.45;;
72557;SDS011;60583;50.094;8.748;2023-05-15T10:06:40;6.35;;;4.68;;
72557;SDS011;60583;50.094;8.748;2023-05-15T10:09:10;7.40;;;4.63;;
72557;SDS011;60583;50.094;8.748;2023-05-15T10:11:37;6.47;;;4.63;;
72557;SDS011;60583;50.094;8.748;2023-05-15T10:14:04;6.53;;;4.50;;
72557;SDS011;60583;50.094;8.748;2023-05-15T10:16:32;6.47;;;4.88;;
72557;SDS011;60583;50.094;8.748;2023-05-15T10:19:05;6.55;;;4.63;;
72557;SDS011;60583;50.094;8.748;2023-05-15T10:21:33;7.97;;;4.70;;
72557;SDS011;60583;50.094;8.748;2023-05-15T10:24:03;6.45;;;4.63;;
72557;SDS011;60583;50.094;8.748;2023-05-15T10:26:36;6.10;;;4.47;;
72557;SDS011;60583;50.094;8.748;2023-05-15T10:29:05;7.15;;;4.38;;
72557;SDS011;60583;50.094;8.748;2023-05-15T10:31:32;5.78;;;4.22;;
72557;SDS011;60583;50.094;8.748;2023-05-15T10:34:00;6.30;;;4.65;;
72557;SDS011;60583;50.094;8.748;2023-05-15T10:36:26;8.35;;;4.70;;
72557;SDS011;60583;50.094;8.748;2023-05-15T10:38:51;6.47;;;4.45;;
72557;SDS011;60583;50.094;8.748;2023-05-15T10:41:17;8.07;;;5.20;;
72557;SDS011;60583;50.094;8.748;2023-05-15T10:43:45;6.90;;;5.15;;
72557;SDS011;60583;50.094;8.748;2023-05-15T10:46:13;7.18;;;5.32;;
72557;SDS011;60583;50.094;8.748;2023-05-15T10:48:39;6.65;;;5.05;;
72557;SDS011;60583;50.094;8.748;2023-05-15T10:51:12;7.18;;;5.13;;
72557;SDS011;60583;50.094;8.748;2023-05-15T10:53:38;7.35;;;5.05;;
72557;SDS011;60583;50.094;8.748;2023-05-15T10:56:04;7.57;;;5.50;;
72557;SDS011;60583;50.094;8.748;2023-05-15T10:58:30;8.60;;;5.90;;
72557;SDS011;60583;50.094;8.748;2023-05-15T11:00:55;8.77;;;6.22;;
72557;SDS011;60583;50.094;8.748;2023-05-15T11:03:33;11.70;;;6.40;;
72557;SDS011;60583;50.094;8.748;2023-05-15T11:06:10;9.13;;;6.53;;
72557;SDS011;60583;50.094;8.748;2023-05-15T11:08:37;8.45;;;6.00;;
72557;SDS011;60583;50.094;8.748;2023-05-15T11:11:04;9.65;;;6.60;;
72557;SDS011;60583;50.094;8.748;2023-05-15T11:27:18;12.07;;;7.90;;
72557;SDS011;60583;50.094;8.748;2023-05-15T11:32:30;8.77;;;6.45;;
72557;SDS011;60583;50.094;8.748;2023-05-15T11:34:59;9.80;;;6.32;;
72557;SDS011;60583;50.094;8.748;2023-05-15T11:37:26;10.63;;;6.43;;
72557;SDS011;60583;50.094;8.748;2023-05-15T11:39:51;9.68;;;6.18;;
72557;SDS011;60583;50.094;8.748;2023-05-15T11:42:17;8.35;;;5.90;;
72557;SDS011;60583;50.094;8.748;2023-05-15T11:44:43;7.35;;;5.63;;
72557;SDS011;60583;50.094;8.748;2023-05-15T11:47:10;8.57;;;5.95;;
72557;SDS011;60583;50.094;8.748;2023-05-15T11:49:36;8.68;;;5.95;;
72557;SDS011;60583;50.094;8.748;2023-05-15T11:52:02;9.35;;;6.63;;
72557;SDS011;60583;50.094;8.748;2023-05-15T11:54:28;8.25;;;5.65;;
72557;SDS011;60583;50.094;8.748;2023-05-15T11:56:55;8.35;;;5.72;;
72557;SDS011;60583;50.094;8.748;2023-05-15T11:59:21;9.23;;;5.70;;
72557;SDS011;60583;50.094;8.748;2023-05-15T12:01:51;8.55;;;5.53;;
72557;SDS011;60583;50.094;8.748;2023-05-15T12:04:16;9.50;;;6.40;;
72557;SDS011;60583;50.094;8.748;2023-05-15T12:06:43;7.97;;;5.35;;
72557;SDS011;60583;50.094;8.748;2023-05-15T12:09:14;8.27;;;5.78;;
72557;SDS011;60583;50.094;8.748;2023-05-15T12:11:46;9.02;;;5.72;;
72557;SDS011;60583;50.094;8.748;2023-05-15T12:14:12;7.85;;;5.40;;
72557;SDS011;60583;50.094;8.748;2023-05-15T12:16:38;8.75;;;6.00;;
72557;SDS011;60583;50.094;8.748;2023-05-15T12:19:03;8.05;;;5.65;;
72557;SDS011;60583;50.094;8.748;2023-05-15T12:21:29;7.82;;;5.80;;
72557;SDS011;60583;50.094;8.748;2023-05-15T12:23:56;9.02;;;6.47;;
72557;SDS011;60583;50.094;8.748;2023-05-15T12:26:21;10.52;;;6.70;;
72557;SDS011;60583;50.094;8.748;2023-05-15T12:28:48;14.50;;;7.78;;
72557;SDS011;60583;50.094;8.748;2023-05-15T12:31:15;11.18;;;8.18;;
72557;SDS011;60583;50.094;8.748;2023-05-15T12:33:41;13.30;;;8.55;;
72557;SDS011;60583;50.094;8.748;2023-05-15T12:36:08;11.18;;;8.27;;
72557;SDS011;60583;50.094;8.748;2023-05-15T12:38:34;10.20;;;7.10;;
72557;SDS011;60583;50.094;8.748;2023-05-15T12:41:01;12.27;;;8.23;;
72557;SDS011;60583;50.094;8.748;2023-05-15T12:43:26;11.65;;;7.45;;
72557;SDS011;60583;50.094;8.748;2023-05-15T12:45:52;13.73;;;7.35;;
72557;SDS011;60583;50.094;8.748;2023-05-15T12:48:19;10.75;;;7.22;;
72557;SDS011;60583;50.094;8.748;2023-05-15T12:50:45;10.48;;;7.40;;
72557;SDS011;60583;50.094;8.748;2023-05-15T12:53:14;11.90;;;7.82;;
72557;SDS011;60583;50.094;8.748;2023-05-15T12:55:40;9.50;;;6.40;;
72557;SDS011;60583;50.094;8.748;2023-05-15T12:58:08;9.45;;;6.10;;
72557;SDS011;60583;50.094;8.748;2023-05-15T13:00:36;7.78;;;5.50;;
72557;SDS011;60583;50.094;8.748;2023-05-15T13:03:03;7.90;;;5.40;;
72557;SDS011;60583;50.094;8.748;2023-05-15T13:05:32;10.27;;;5.80;;
72557;SDS011;60583;50.094;8.748;2023-05-15T13:07:58;7.45;;;5.30;;
72557;SDS011;60583;50.094;8.748;2023-05-15T13:10:25;8.48;;;5.32;;
72557;SDS011;60583;50.094;8.748;2023-05-15T13:12:54;8.10;;;5.47;;
72557;SDS011;60583;50.094;8.748;2023-05-15T13:15:21;8.18;;;5.28;;
72557;SDS011;60583;50.094;8.748;2023-05-15T13:17:57;7.35;;;5.55;;
72557;SDS011;60583;50.094;8.748;2023-05-15T13:20:24;7.75;;;5.00;;
72557;SDS011;60583;50.094;8.748;2023-05-15T13:22:49;8.07;;;5.50;;
72557;SDS011;60583;50.094;8.748;2023-05-15T13:25:19;9.27;;;5.20;;
72557;SDS011;60583;50.094;8.748;2023-05-15T13:27:45;7.55;;;5.03;;
72557;SDS011;60583;50.094;8.748;2023-05-15T13:30:12;7.07;;;4.85;;
72557;SDS011;60583;50.094;8.748;2023-05-15T13:32:38;6.97;;;4.75;;
72557;SDS011;60583;50.094;8.748;2023-05-15T13:35:04;9.02;;;5.68;;
72557;SDS011;60583;50.094;8.748;2023-05-15T13:37:29;8.07;;;5.03;;
72557;SDS011;60583;50.094;8.748;2023-05-15T13:39:55;8.30;;;5.05;;
72557;SDS011;60583;50.094;8.748;2023-05-15T13:42:20;7.13;;;4.93;;
72557;SDS011;60583;50.094;8.748;2023-05-15T13:44:46;6.25;;;4.82;;
72557;SDS011;60583;50.094;8.748;2023-05-15T13:47:11;6.70;;;5.03;;
72557;SDS011;60583;50.094;8.748;2023-05-15T13:49:36;6.75;;;4.35;;
72557;SDS011;60583;50.094;8.748;2023-05-15T13:52:02;7.28;;;4.75;;
72557;SDS011;60583;50.094;8.748;2023-05-15T13:54:28;6.57;;;4.30;;
72557;SDS011;60583;50.094;8.748;2023-05-15T13:56:54;7.70;;;4.28;;
72557;SDS011;60583;50.094;8.748;2023-05-15T13:59:19;6.25;;;4.10;;
72557;SDS011;60583;50.094;8.748;2023-05-15T14:01:45;5.80;;;3.75;;
72557;SDS011;60583;50.094;8.748;2023-05-15T14:04:11;5.50;;;3.47;;
72557;SDS011;60583;50.094;8.748;2023-05-15T14:06:36;5.28;;;3.08;;
72557;SDS011;60583;50.094;8.748;2023-05-15T14:09:02;5.57;;;3.10;;
72557;SDS011;60583;50.094;8.748;2023-05-15T14:11:28;6.22;;;3.55;;
72557;SDS011;60583;50.094;8.748;2023-05-15T14:13:54;7.18;;;3.70;;
72557;SDS011;60583;50.094;8.748;2023-05-15T14:16:19;6.45;;;3.83;;
72557;SDS011;60583;50.094;8.748;2023-05-15T14:18:45;7.22;;;4.10;;
72557;SDS011;60583;50.094;8.748;2023-05-15T14:21:10;6.30;;;4.18;;
72557;SDS011;60583;50.094;8.748;2023-05-15T14:23:36;7.60;;;4.80;;
72557;SDS011;60583;50.094;8.748;2023-05-15T14:26:01;7.72;;;5.18;;
72557;SDS011;60583;50.094;8.748;2023-05-15T14:28:26;6.25;;;4.28;;
72557;SDS011;60583;50.094;8.748;2023-05-15T14:30:52;7.05;;;4.88;;
72557;SDS011;60583;50.094;8.748;2023-05-15T14:33:17;6.40;;;4.63;;
72557;SDS011;60583;50.094;8.748;2023-05-15T14:35:43;10.95;;;6.72;;
72557;SDS011;60583;50.094;8.748;2023-05-15T14:38:08;6.18;;;3.70;;
72557;SDS011;60583;50.094;8.748;2023-05-15T14:40:34;6.80;;;3.60;;
72557;SDS011;60583;50.094;8.748;2023-05-15T14:42:59;4.65;;;3.22;;
72557;SDS011;60583;50.094;8.748;2023-05-15T14:45:24;5.13;;;3.03;;
72557;SDS011;60583;50.094;8.748;2023-05-15T14:47:50;5.47;;;3.00;;
72557;SDS011;60583;50.094;8.748;2023-05-15T14:50:16;4.68;;;2.92;;
72557;SDS011;60583;50.094;8.748;2023-05-15T14:52:41;5.65;;;3.15;;
72557;SDS011;60583;50.094;8.748;2023-05-15T14:55:07;6.85;;;3.08;;
72557;SDS011;60583;50.094;8.748;2023-05-15T14:57:32;5.57;;;3.00;;
72557;SDS011;60583;50.094;8.748;2023-05-15T14:59:58;5.45;;;3.47;;
72557;SDS011;60583;50.094;8.748;2023-05-15T15:02:23;5.97;;;3.45;;
72557;SDS011;60583;50.094;8.748;2023-05-15T15:04:48;6.25;;;3.40;;
72557;SDS011;60583;50.094;8.748;2023-05-15T15:07:14;7.22;;;4.30;;
72557;SDS011;60583;50.094;8.748;2023-05-15T15:09:39;6.38;;;4.45;;
72557;SDS011;60583;50.094;8.748;2023-05-15T15:12:05;8.13;;;4.63;;
72557;SDS011;60583;50.094;8.748;2023-05-15T15:14:31;7.55;;;4.70;;